CSCL Fuzhou — ELYA7 — position and weather

sailwx.info

Track history (hours):
 
Tides and Currents Weather Stations Pressure Air Temp Water Temp Dewpoint Dewpoint Depression Visibility Wind Speed Wind Dir Waves Ship Positions

CSCL Fuzhou

Last reported at 2016-Aug-25 04:33 UTC. Time now 2016-Aug-26 19:56 UTC.
Position N 35°11' E 139°46'.

Length 207.4 m; beam 29.8 m; draft 11.4 m.

Type: Ship (hazmat cat A). MMSI: 636016483.

Date/timePositionNaut miles runAvg speedWind from/ knotsBaromVisibWave heightAir tempDewpointWater temp
2016-Aug-25 04:33N 35°11' E 139°46'1211.8
2016-Aug-25 03:34N 35°22' E 139°42'1312.7
2016-Aug-25 02:33N 35°34' E 139°49'3 3.3
2016-Aug-25 01:31N 35°37' E 139°47'0 0.0
2016-Aug-25 00:31N 35°37' E 139°47'0 0.0
2016-Aug-24 23:31N 35°37' E 139°47'0 0.0
2016-Aug-24 22:31N 35°37' E 139°47'0 0.0
2016-Aug-24 21:31N 35°37' E 139°47'0 0.0
2016-Aug-24 20:31N 35°37' E 139°47'0 0.0
2016-Aug-24 19:31N 35°37' E 139°47'0 0.0
2016-Aug-24 18:31N 35°37' E 139°47'0 0.0
2016-Aug-24 17:31N 35°37' E 139°47'0 0.0
2016-Aug-24 16:31N 35°37' E 139°47'0 0.0
2016-Aug-24 15:31N 35°37' E 139°47'0 0.0
2016-Aug-24 14:31N 35°37' E 139°47'0 0.0
2016-Aug-24 13:25N 35°37' E 139°47'0 0.0
2016-Aug-24 12:25N 35°37' E 139°47'0 0.0
2016-Aug-24 11:25N 35°37' E 139°47'0 0.0
2016-Aug-24 10:28N 35°37' E 139°47'0 0.0
2016-Aug-24 09:31N 35°37' E 139°47'0 0.0
2016-Aug-24 08:31N 35°37' E 139°47'0 0.0
2016-Aug-24 07:31N 35°37' E 139°47'2 2.3
2016-Aug-24 06:33N 35°35' E 139°48'5 2.3
2016-Aug-24 04:33N 35°33' E 139°53'0 0.2
2016-Aug-24 03:33N 35°33' E 139°53'0 0.1
2016-Aug-24 02:33N 35°33' E 139°53'0 0.0
2016-Aug-24 01:33N 35°33' E 139°53'0 0.0
2016-Aug-24 00:33N 35°33' E 139°53'0 0.0
2016-Aug-23 23:33N 35°33' E 139°53'0 0.4
2016-Aug-23 22:33N 35°32' E 139°53'1110.5
2016-Aug-23 21:33N 35°26' E 139°43'2 1.6
2016-Aug-23 20:31N 35°26' E 139°41'0 0.0
2016-Aug-23 19:31N 35°26' E 139°41'0 0.0
2016-Aug-23 18:31N 35°26' E 139°41'0 0.0
2016-Aug-23 17:31N 35°26' E 139°41'0 0.0
2016-Aug-23 16:31N 35°26' E 139°41'0 0.0
2016-Aug-23 15:31N 35°26' E 139°41'0 0.0
2016-Aug-23 14:31N 35°26' E 139°41'0 0.0
2016-Aug-23 13:31N 35°26' E 139°41'0 0.0
2016-Aug-23 12:31N 35°26' E 139°41'0 0.0
2016-Aug-23 11:31N 35°26' E 139°41'0 0.0
2016-Aug-23 10:31N 35°26' E 139°41'2 1.9
2016-Aug-23 09:34N 35°25' E 139°43'7 6.6
2016-Aug-23 08:33N 35°19' E 139°44'9 9.1
2016-Aug-23 07:33N 35°10' E 139°47'5 5.4
2016-Aug-23 06:33N 35°05' E 139°44'1111.2
2016-Aug-23 05:33N 34°55' E 139°39'11 8.8
2016-Aug-23 04:20N 34°45' E 139°35'1 1.1
2016-Aug-23 03:31N 34°44' E 139°34'7812.6
2016-Aug-22 21:20N 34°09' E 138°11'911.4
2016-Aug-22 20:33N 34°05' E 138°01'  
2016-Aug-18 21:31N 22°52' E 120°01'1717.8
2016-Aug-18 20:34N 22°37' E 120°11'10 0.5
2016-Aug-18 01:23N 22°33' E 120°20'4 4.3
2016-Aug-18 00:33N 22°32' E 120°16'6 5.8
2016-Aug-17 23:33N 22°31' E 120°10'1716.5
2016-Aug-17 22:33N 22°30' E 119°52'32117.7
2016-Aug-17 04:26N 22°18' E 114°06'3 1.2
2016-Aug-17 02:05N 22°20' E 114°08'0 0.0
2016-Aug-17 01:28N 22°20' E 114°08'0 0.0
2016-Aug-17 00:04N 22°20' E 114°08'0 0.0
2016-Aug-16 23:22N 22°20' E 114°08'0 0.0
2016-Aug-16 22:16N 22°20' E 114°08'0 0.0
2016-Aug-16 21:28N 22°20' E 114°08'0 0.0
2016-Aug-16 20:28N 22°20' E 114°08'0 0.0
2016-Aug-16 19:28N 22°20' E 114°08'0 0.0
2016-Aug-16 18:16N 22°20' E 114°08'0 0.0
2016-Aug-16 17:28N 22°20' E 114°08'0 0.0
2016-Aug-16 16:32N 22°20' E 114°08'  
Track history (hours):
 
Tides and Currents Weather Stations Pressure Air Temp Water Temp Dewpoint Dewpoint Depression Visibility Wind Speed Wind Dir Waves Ship Positions

CSCL Fuzhou

Last reported at 2016-Aug-25 04:33 UTC. Time now 2016-Aug-26 19:56 UTC.
Position N 35°11' E 139°46'.

Length 207.4 m; beam 29.8 m; draft 11.4 m.

Type: Ship (hazmat cat A). MMSI: 636016483.

Date/timePositionNaut miles runAvg speedWind from/ knotsBaromVisibWave heightAir tempDewpointWater temp
2016-Aug-25 04:33N 35°11' E 139°46'1211.8
2016-Aug-25 03:34N 35°22' E 139°42'1312.7
2016-Aug-25 02:33N 35°34' E 139°49'3 3.3
2016-Aug-25 01:31N 35°37' E 139°47'0 0.0
2016-Aug-25 00:31N 35°37' E 139°47'0 0.0
2016-Aug-24 23:31N 35°37' E 139°47'0 0.0
2016-Aug-24 22:31N 35°37' E 139°47'0 0.0
2016-Aug-24 21:31N 35°37' E 139°47'0 0.0
2016-Aug-24 20:31N 35°37' E 139°47'0 0.0
2016-Aug-24 19:31N 35°37' E 139°47'0 0.0
2016-Aug-24 18:31N 35°37' E 139°47'0 0.0
2016-Aug-24 17:31N 35°37' E 139°47'0 0.0
2016-Aug-24 16:31N 35°37' E 139°47'0 0.0
2016-Aug-24 15:31N 35°37' E 139°47'0 0.0
2016-Aug-24 14:31N 35°37' E 139°47'0 0.0
2016-Aug-24 13:25N 35°37' E 139°47'0 0.0
2016-Aug-24 12:25N 35°37' E 139°47'0 0.0
2016-Aug-24 11:25N 35°37' E 139°47'0 0.0
2016-Aug-24 10:28N 35°37' E 139°47'0 0.0
2016-Aug-24 09:31N 35°37' E 139°47'0 0.0
2016-Aug-24 08:31N 35°37' E 139°47'0 0.0
2016-Aug-24 07:31N 35°37' E 139°47'2 2.3
2016-Aug-24 06:33N 35°35' E 139°48'5 2.3
2016-Aug-24 04:33N 35°33' E 139°53'0 0.2
2016-Aug-24 03:33N 35°33' E 139°53'0 0.1
2016-Aug-24 02:33N 35°33' E 139°53'0 0.0
2016-Aug-24 01:33N 35°33' E 139°53'0 0.0
2016-Aug-24 00:33N 35°33' E 139°53'0 0.0
2016-Aug-23 23:33N 35°33' E 139°53'0 0.4
2016-Aug-23 22:33N 35°32' E 139°53'1110.5
2016-Aug-23 21:33N 35°26' E 139°43'2 1.6
2016-Aug-23 20:31N 35°26' E 139°41'0 0.0
2016-Aug-23 19:31N 35°26' E 139°41'0 0.0
2016-Aug-23 18:31N 35°26' E 139°41'0 0.0
2016-Aug-23 17:31N 35°26' E 139°41'0 0.0
2016-Aug-23 16:31N 35°26' E 139°41'0 0.0
2016-Aug-23 15:31N 35°26' E 139°41'0 0.0
2016-Aug-23 14:31N 35°26' E 139°41'0 0.0
2016-Aug-23 13:31N 35°26' E 139°41'0 0.0
2016-Aug-23 12:31N 35°26' E 139°41'0 0.0
2016-Aug-23 11:31N 35°26' E 139°41'0 0.0
2016-Aug-23 10:31N 35°26' E 139°41'2 1.9
2016-Aug-23 09:34N 35°25' E 139°43'7 6.6
2016-Aug-23 08:33N 35°19' E 139°44'9 9.1
2016-Aug-23 07:33N 35°10' E 139°47'5 5.4
2016-Aug-23 06:33N 35°05' E 139°44'1111.2
2016-Aug-23 05:33N 34°55' E 139°39'11 8.8
2016-Aug-23 04:20N 34°45' E 139°35'1 1.1
2016-Aug-23 03:31N 34°44' E 139°34'7812.6
2016-Aug-22 21:20N 34°09' E 138°11'911.4
2016-Aug-22 20:33N 34°05' E 138°01'  
2016-Aug-18 21:31N 22°52' E 120°01'1717.8
2016-Aug-18 20:34N 22°37' E 120°11'10 0.5
2016-Aug-18 01:23N 22°33' E 120°20'4 4.3
2016-Aug-18 00:33N 22°32' E 120°16'6 5.8
2016-Aug-17 23:33N 22°31' E 120°10'1716.5
2016-Aug-17 22:33N 22°30' E 119°52'32117.7
2016-Aug-17 04:26N 22°18' E 114°06'3 1.2
2016-Aug-17 02:05N 22°20' E 114°08'0 0.0
2016-Aug-17 01:28N 22°20' E 114°08'0 0.0
2016-Aug-17 00:04N 22°20' E 114°08'0 0.0
2016-Aug-16 23:22N 22°20' E 114°08'0 0.0
2016-Aug-16 22:16N 22°20' E 114°08'0 0.0
2016-Aug-16 21:28N 22°20' E 114°08'0 0.0
2016-Aug-16 20:28N 22°20' E 114°08'0 0.0
2016-Aug-16 19:28N 22°20' E 114°08'0 0.0
2016-Aug-16 18:16N 22°20' E 114°08'0 0.0
2016-Aug-16 17:28N 22°20' E 114°08'0 0.0
2016-Aug-16 16:32N 22°20' E 114°08'  

Dump ship's entire track history